Luzerne, Michigan
Current Conditions -  °F | °C
As of 2:15 PM on Saturday 20 Dec 2014 (Local Time) from KGOV Reporting Station
Broken Clouds Broken Clouds  
Wind Chill: 20°   Ceiling: 1700
Heat Index: 26°   Visibility: 10mi
Dew Point: 20°   Wind: 5mph
Humidity: 81%   Direction: 140°SE
Pressure: 30.23"   Gusts: NA
Location:  44.62°N, 84.27°W
Report Text: KGOV 201915Z AUTO 14004KT 10SM BKN017 M03/M06 A3023 RMK AO2 T10351064
Loading
Personal Weather Stations






























Interactive Weather Map New forecast layout! Learn more

10-Day Weather Forecast

Advertisements
Track Severe Weather on mobile